Map

Track Data

SID SEASON NUMBER BASIN SUBBASIN NAME ISO_TIME NATURE LAT LON WMO_WIND WMO_PRES WMO_AGENCY TRACK_TYPE DIST2LAND LANDFALL IFLAG USA_AGENCY USA_ATCF_ID USA_LAT USA_LON USA_RECORD USA_STATUS USA_WIND USA_PRES USA_SSHS USA_R34_NE USA_R34_SE USA_R34_SW USA_R34_NW USA_R50_NE USA_R50_SE USA_R50_SW USA_R50_NW USA_R64_NE USA_R64_SE USA_R64_SW USA_R64_NW USA_POCI USA_ROCI USA_RMW USA_EYE TOKYO_LAT TOKYO_LON TOKYO_GRADE TOKYO_WIND TOKYO_PRES TOKYO_R50_DIR TOKYO_R50_LONG TOKYO_R50_SHORT TOKYO_R30_DIR TOKYO_R30_LONG TOKYO_R30_SHORT TOKYO_LAND CMA_LAT CMA_LON CMA_CAT CMA_WIND CMA_PRES HKO_LAT HKO_LON HKO_CAT HKO_WIND HKO_PRES NEWDELHI_LAT NEWDELHI_LON NEWDELHI_GRADE NEWDELHI_WIND NEWDELHI_PRES NEWDELHI_CI NEWDELHI_DP NEWDELHI_POCI REUNION_LAT REUNION_LON REUNION_TYPE REUNION_WIND REUNION_PRES REUNION_TNUM REUNION_CI REUNION_RMW REUNION_R34_NE REUNION_R34_SE REUNION_R34_SW REUNION_R34_NW REUNION_R50_NE REUNION_R50_SE REUNION_R50_SW REUNION_R50_NW REUNION_R64_NE REUNION_R64_SE REUNION_R64_SW REUNION_R64_NW BOM_LAT BOM_LON BOM_TYPE BOM_WIND BOM_PRES BOM_TNUM BOM_CI BOM_RMW BOM_R34_NE BOM_R34_SE BOM_R34_SW BOM_R34_NW BOM_R50_NE BOM_R50_SE BOM_R50_SW BOM_R50_NW BOM_R64_NE BOM_R64_SE BOM_R64_SW BOM_R64_NW BOM_ROCI BOM_POCI BOM_EYE BOM_POS_METHOD BOM_PRES_METHOD NADI_LAT NADI_LON NADI_CAT NADI_WIND NADI_PRES WELLINGTON_LAT WELLINGTON_LON WELLINGTON_WIND WELLINGTON_PRES DS824_LAT DS824_LON DS824_STAGE DS824_WIND DS824_PRES TD9636_LAT TD9636_LON TD9636_STAGE TD9636_WIND TD9636_PRES TD9635_LAT TD9635_LON TD9635_WIND TD9635_PRES TD9635_ROCI NEUMANN_LAT NEUMANN_LON NEUMANN_CLASS NEUMANN_WIND NEUMANN_PRES MLC_LAT MLC_LON MLC_CLASS MLC_WIND MLC_PRES USA_GUST BOM_GUST BOM_GUST_PER REUNION_GUST REUNION_GUST_PER USA_SEAHGT USA_SEARAD_NE USA_SEARAD_SE USA_SEARAD_SW USA_SEARAD_NW STORM_SPEED STORM_DIR
1939285N18298 1939 71 NA CS NOT_NAMED 1939-10-11 12:00:00 TS 17.5000 -62.5000 25 hurdat_atl main 337 334 O_____________ hurdat_atl AL051939 17.5000 -62.5000 TD 25 -1 2 0
1939285N18298 1939 71 NA CS NOT_NAMED 1939-10-11 15:00:00 TS 17.5900 -62.4900 main 334 332 P_____________ AL051939 17.5900 -62.4900 TD 25 -1 2 8
1939285N18298 1939 71 NA CS NOT_NAMED 1939-10-11 18:00:00 TS 17.7000 -62.5000 25 hurdat_atl main 332 330 O_____________ hurdat_atl AL051939 17.7000 -62.5000 TD 25 -1 3 347
1939285N18298 1939 71 NA CS NOT_NAMED 1939-10-11 21:00:00 TS 17.8425 -62.5425 main 330 317 P_____________ AL051939 17.8425 -62.5425 TD 27 -1 3 343
1939285N18298 1939 71 NA CS NOT_NAMED 1939-10-12 00:00:00 TS 18.0000 -62.6000 30 hurdat_atl main 317 317 O_____________ hurdat_atl AL051939 18.0000 -62.6000 TD 30 -1 3 343
1939285N18298 1939 71 NA CS NOT_NAMED 1939-10-12 03:00:00 TS 18.1425 -62.6425 main 317 306 P_____________ AL051939 18.1425 -62.6425 TD 30 -1 3 343
1939285N18298 1939 71 NA CS NOT_NAMED 1939-10-12 06:00:00 TS 18.3000 -62.7000 30 hurdat_atl main 306 295 O_____________ hurdat_atl AL051939 18.3000 -62.7000 TD 30 -1 4 341
1939285N18298 1939 71 NA CS NOT_NAMED 1939-10-12 09:00:00 TS 18.4925 -62.7775 main 295 285 P_____________ AL051939 18.4925 -62.7775 TD 32 -1 4 335
1939285N18298 1939 71 NA CS NOT_NAMED 1939-10-12 12:00:00 TS 18.7000 -62.9000 35 hurdat_atl main 286 269 O_____________ hurdat_atl AL051939 18.7000 -62.9000 TS 35 0 5 325
1939285N18298 1939 71 NA NA NOT_NAMED 1939-10-12 15:00:00 TS 18.8925 -63.0776 main 269 254 P_____________ AL051939 18.8925 -63.0776 TS 35 0 6 317
1939285N18298 1939 71 NA NA NOT_NAMED 1939-10-12 18:00:00 TS 19.1000 -63.3000 35 hurdat_atl main 254 242 O_____________ hurdat_atl AL051939 19.1000 -63.3000 TS 35 0 6 316
1939285N18298 1939 71 NA NA NOT_NAMED 1939-10-12 21:00:00 TS 19.3349 -63.5276 main 242 232 P_____________ AL051939 19.3349 -63.5276 TS 35 0 7 317
1939285N18298 1939 71 NA NA NOT_NAMED 1939-10-13 00:00:00 TS 19.6000 -63.8000 35 hurdat_atl main 232 222 O_____________ hurdat_atl AL051939 19.6000 -63.8000 TS 35 0 8 315
1939285N18298 1939 71 NA NA NOT_NAMED 1939-10-13 03:00:00 TS 19.8925 -64.1276 main 230 223 P_____________ AL051939 19.8925 -64.1276 TS 37 0 9 312
1939285N18298 1939 71 NA NA NOT_NAMED 1939-10-13 06:00:00 TS 20.2000 -64.5000 40 hurdat_atl main 232 232 O_____________ hurdat_atl AL051939 20.2000 -64.5000 TS 40 0 9 311
1939285N18298 1939 71 NA NA NOT_NAMED 1939-10-13 09:00:00 TS 20.5075 -64.8926 main 246 246 P_____________ AL051939 20.5075 -64.8926 TS 40 0 10 309
1939285N18298 1939 71 NA NA NOT_NAMED 1939-10-13 12:00:00 TS 20.8000 -65.3000 40 hurdat_atl main 270 269 O_____________ hurdat_atl AL051939 20.8000 -65.3000 TS 40 0 9 307
1939285N18298 1939 71 NA NA NOT_NAMED 1939-10-13 15:00:00 TS 21.0724 -65.7001 main 302 302 P_____________ AL051939 21.0724 -65.7001 TS 45 0 9 304
1939285N18298 1939 71 NA NA NOT_NAMED 1939-10-13 18:00:00 TS 21.3000 -66.1000 50 hurdat_atl main 324 324 O_____________ hurdat_atl AL051939 21.3000 -66.1000 TS 50 0 9 297
1939285N18298 1939 71 NA NA NOT_NAMED 1939-10-13 21:00:00 TS 21.4650 -66.5226 main 346 346 P_____________ AL051939 21.4650 -66.5226 TS 55 0 8 292
1939285N18298 1939 71 NA NA NOT_NAMED 1939-10-14 00:00:00 TS 21.6000 -66.9000 60 hurdat_atl main 357 346 O_____________ hurdat_atl AL051939 21.6000 -66.9000 TS 60 0 7 295
1939285N18298 1939 71 NA NA NOT_NAMED 1939-10-14 03:00:00 TS 21.7423 -67.1727 main 346 346 P_____________ AL051939 21.7423 -67.1727 TS 65 1 6 303
1939285N18298 1939 71 NA NA NOT_NAMED 1939-10-14 06:00:00 TS 21.9000 -67.4000 70 hurdat_atl main 351 345 O_____________ hurdat_atl AL051939 21.9000 -67.4000 HU 70 1 6 305
1939285N18298 1939 71 NA NA NOT_NAMED 1939-10-14 09:00:00 TS 22.0625 -67.6725 main 354 349 P_____________ AL051939 22.0625 -67.6725 HU 75 1 6 311
1939285N18298 1939 71 NA NA NOT_NAMED 1939-10-14 12:00:00 TS 22.3000 -67.9000 80 hurdat_atl main 365 365 O_____________ hurdat_atl AL051939 22.3000 -67.9000 HU 80 1 7 330
1939285N18298 1939 71 NA NA NOT_NAMED 1939-10-14 15:00:00 TS 22.6550 -68.0449 main 403 398 P_____________ AL051939 22.6550 -68.0449 HU 85 2 8 347
1939285N18298 1939 71 NA NA NOT_NAMED 1939-10-14 18:00:00 TS 23.1000 -68.1000 90 hurdat_atl main 438 438 O_____________ hurdat_atl AL051939 23.1000 -68.1000 HU 90 2 9 356
1939285N18298 1939 71 NA NA NOT_NAMED 1939-10-14 21:00:00 TS 23.5774 -68.1023 main 488 488 P_____________ AL051939 23.5774 -68.1023 HU 95 2 10 5
1939285N18298 1939 71 NA NA NOT_NAMED 1939-10-15 00:00:00 TS 24.1000 -68.0000 100 hurdat_atl main 543 543 O_____________ hurdat_atl AL051939 24.1000 -68.0000 HU 100 3 11 15
1939285N18298 1939 71 NA NA NOT_NAMED 1939-10-15 03:00:00 TS 24.6425 -67.7876 main 603 603 P_____________ AL051939 24.6425 -67.7876 HU 105 3 12 22
1939285N18298 1939 71 NA NA NOT_NAMED 1939-10-15 06:00:00 TS 25.2000 -67.5000 110 hurdat_atl main 676 676 O_____________ hurdat_atl AL051939 25.2000 -67.5000 HU 110 3 12 26
1939285N18298 1939 71 NA NA NOT_NAMED 1939-10-15 09:00:00 TS 25.7500 -67.1999 main 750 750 P_____________ AL051939 25.7500 -67.1999 HU 115 4 12 26
1939285N18298 1939 71 NA NA NOT_NAMED 1939-10-15 12:00:00 TS 26.3000 -66.9000 120 hurdat_atl main 813 813 O_____________ hurdat_atl AL051939 26.3000 -66.9000 HU 120 4 12 24
1939285N18298 1939 71 NA NA NOT_NAMED 1939-10-15 15:00:00 TS 26.8499 -66.6422 main 876 876 P_____________ AL051939 26.8499 -66.6422 HU 120 4 12 22
1939285N18298 1939 71 NA NA NOT_NAMED 1939-10-15 18:00:00 TS 27.4000 -66.4000 120 hurdat_atl main 945 945 O_____________ hurdat_atl AL051939 27.4000 -66.4000 HU 120 4 12 22
1939285N18298 1939 71 NA NA NOT_NAMED 1939-10-15 21:00:00 TS 27.9500 -66.1497 main 1008 1008 P_____________ AL051939 27.9500 -66.1497 HU 120 4 12 22
1939285N18298 1939 71 NA NA NOT_NAMED 1939-10-16 00:00:00 TS 28.5000 -65.9000 120 hurdat_atl main 1077 1077 O_____________ hurdat_atl AL051939 28.5000 -65.9000 HU 120 4 12 22
1939285N18298 1939 71 NA NA NOT_NAMED 1939-10-16 03:00:00 TS 29.0425 -65.6497 main 1140 1140 P_____________ AL051939 29.0425 -65.6497 HU 120 4 12 22
1939285N18298 1939 71 NA NA NOT_NAMED 1939-10-16 06:00:00 TS 29.6000 -65.4000 120 hurdat_atl main 1168 1148 O_____________ hurdat_atl AL051939 29.6000 -65.4000 HU 120 4 12 20
1939285N18298 1939 71 NA NA NOT_NAMED 1939-10-16 09:00:00 TS 30.1772 -65.1790 main 1143 1127 P_____________ AL051939 30.1772 -65.1790 HU 117 4 13 20
1939285N18298 1939 71 NA NA NOT_NAMED 1939-10-16 12:00:00 TS 30.8000 -64.9000 115 hurdat_atl main 1129 1119 O_____________ hurdat_atl AL051939 30.8000 -64.9000 HU 115 4 14 24
1939285N18298 1939 71 NA NA NOT_NAMED 1939-10-16 15:00:00 TS 31.4774 -64.5019 main 1122 1117 P_____________ AL051939 31.4774 -64.5019 HU 115 4 16 29
1939285N18298 1939 71 NA NA NOT_NAMED 1939-10-16 18:00:00 TS 32.2000 -64.0000 115 hurdat_atl main 1130 1130 O_____________ hurdat_atl AL051939 32.2000 -64.0000 HU 115 4 17 32
1939285N18298 1939 71 NA NA NOT_NAMED 1939-10-16 21:00:00 TS 32.9349 -63.4293 main 1139 1091 P_____________ AL051939 32.9349 -63.4293 HU 115 4 18 34
1939285N18298 1939 71 NA NA NOT_NAMED 1939-10-17 00:00:00 TS 33.7000 -62.8000 115 hurdat_atl main 1091 1045 O_____________ hurdat_atl AL051939 33.7000 -62.8000 HU 115 4 19 34
1939285N18298 1939 71 NA NA NOT_NAMED 1939-10-17 03:00:00 TS 34.4845 -62.1710 main 1036 968 P_____________ AL051939 34.4845 -62.1710 HU 112 3 19 34
1939285N18298 1939 71 NA NA NOT_NAMED 1939-10-17 06:00:00 TS 35.3000 -61.5000 110 hurdat_atl main 968 914 O_____________ hurdat_atl AL051939 35.3000 -61.5000 HU 110 3 19 36
1939285N18298 1939 71 NA NA NOT_NAMED 1939-10-17 09:00:00 TS 36.0517 -60.7968 main 908 855 P_____________ AL051939 36.0517 -60.7968 HU 107 3 21 36
1939285N18298 1939 71 NA NA NOT_NAMED 1939-10-17 12:00:00 TS 37.0000 -60.0000 105 hurdat_atl main 850 784 O_____________ hurdat_atl AL051939 37.0000 -60.0000 HU 105 3 26 32
1939285N18298 1939 71 NA NA NOT_NAMED 1939-10-17 15:00:00 TS 38.2778 -59.0484 main 778 648 P_____________ AL051939 38.2778 -59.0484 HU 100 3 33 28
1939285N18298 1939 71 NA NA NOT_NAMED 1939-10-17 18:00:00 TS 39.9000 -58.0000 95 hurdat_atl main 641 501 O_____________ hurdat_atl AL051939 39.9000 -58.0000 HU 95 2 40 24
1939285N18298 1939 71 NA NA NOT_NAMED 1939-10-17 21:00:00 TS 41.8845 -56.9169 main 497 333 P_____________ AL051939 41.8845 -56.9169 HU 90 2 43 22
1939285N18298 1939 71 NA NA NOT_NAMED 1939-10-18 00:00:00 ET 43.9000 -55.8000 85 hurdat_atl main 322 162 O_____________ hurdat_atl AL051939 43.9000 -55.8000 EX 85 -4 40 24
1939285N18298 1939 71 NA NA NOT_NAMED 1939-10-18 03:00:00 ET 45.5078 -54.7173 main 148 0 P_____________ AL051939 45.5078 -54.7173 EX 80 -4 35 26
1939285N18298 1939 71 NA NA NOT_NAMED 1939-10-18 06:00:00 ET 47.0000 -53.6000 75 hurdat_atl main 0 0 O_____________ hurdat_atl AL051939 47.0000 -53.6000 EX 75 -4 35 28
1939285N18298 1939 71 NA NA NOT_NAMED 1939-10-18 09:00:00 ET 48.5837 -52.3513 main 45 45 P_____________ AL051939 48.5837 -52.3513 EX 72 -4 36 28
1939285N18298 1939 71 NA NA NOT_NAMED 1939-10-18 12:00:00 ET 50.2000 -51.0000 70 hurdat_atl main 204 204 O_____________ hurdat_atl AL051939 50.2000 -51.0000 EX 70 -4 37 29
1939285N18298 1939 71 NA NA NOT_NAMED 1939-10-18 15:00:00 ET 51.8463 -49.5540 main 389 389 P_____________ AL051939 51.8463 -49.5540 EX 65 -4 38 29
1939285N18298 1939 71 NA NA NOT_NAMED 1939-10-18 18:00:00 ET 53.5000 -48.0000 60 hurdat_atl main 514 O_____________ hurdat_atl AL051939 53.5000 -48.0000 EX 60 -4 38 29

About IBTrACS Database

This database is a web-friendly format of International Best Track Archive for Climate Stewardship (IBTrACS), a global best track data archive curated by NOAA dating back to 1842.

Updated: 2021-11-26